sensor_id;sensor_type;location;lat;lon;timestamp;P1;durP1;ratioP1;P2;durP2;ratioP2
83893;SDS011;73920;51.902;6.374;2023-11-21T00:01:00;20.20;;;8.23;;
83893;SDS011;73920;51.902;6.374;2023-11-21T00:03:27;21.92;;;8.57;;
83893;SDS011;73920;51.902;6.374;2023-11-21T00:05:53;18.27;;;8.30;;
83893;SDS011;73920;51.902;6.374;2023-11-21T00:08:19;21.98;;;8.75;;
83893;SDS011;73920;51.902;6.374;2023-11-21T00:10:46;15.85;;;7.68;;
83893;SDS011;73920;51.902;6.374;2023-11-21T00:13:12;17.58;;;7.25;;
83893;SDS011;73920;51.902;6.374;2023-11-21T00:15:38;16.55;;;7.20;;
83893;SDS011;73920;51.902;6.374;2023-11-21T00:18:05;18.75;;;7.97;;
83893;SDS011;73920;51.902;6.374;2023-11-21T00:20:31;18.83;;;7.60;;
83893;SDS011;73920;51.902;6.374;2023-11-21T00:22:57;15.57;;;7.12;;
83893;SDS011;73920;51.902;6.374;2023-11-21T00:25:24;19.02;;;8.88;;
83893;SDS011;73920;51.902;6.374;2023-11-21T00:27:50;18.40;;;6.75;;
83893;SDS011;73920;51.902;6.374;2023-11-21T00:30:16;18.92;;;8.13;;
83893;SDS011;73920;51.902;6.374;2023-11-21T00:32:43;18.12;;;7.72;;
83893;SDS011;73920;51.902;6.374;2023-11-21T00:35:09;18.73;;;7.95;;
83893;SDS011;73920;51.902;6.374;2023-11-21T00:37:35;23.75;;;8.30;;
83893;SDS011;73920;51.902;6.374;2023-11-21T00:40:01;19.77;;;8.05;;
83893;SDS011;73920;51.902;6.374;2023-11-21T00:42:28;16.83;;;7.85;;
83893;SDS011;73920;51.902;6.374;2023-11-21T00:44:54;16.48;;;6.47;;
83893;SDS011;73920;51.902;6.374;2023-11-21T00:47:20;20.55;;;8.50;;
83893;SDS011;73920;51.902;6.374;2023-11-21T00:49:47;25.33;;;9.77;;
83893;SDS011;73920;51.902;6.374;2023-11-21T00:52:13;22.75;;;7.60;;
83893;SDS011;73920;51.902;6.374;2023-11-21T00:54:39;23.48;;;8.48;;
83893;SDS011;73920;51.902;6.374;2023-11-21T00:57:05;25.60;;;8.88;;
83893;SDS011;73920;51.902;6.374;2023-11-21T00:59:31;24.42;;;8.57;;
83893;SDS011;73920;51.902;6.374;2023-11-21T01:01:57;20.40;;;7.90;;
83893;SDS011;73920;51.902;6.374;2023-11-21T01:04:24;23.20;;;8.75;;
83893;SDS011;73920;51.902;6.374;2023-11-21T01:06:50;25.45;;;8.75;;
83893;SDS011;73920;51.902;6.374;2023-11-21T01:09:16;19.35;;;7.90;;
83893;SDS011;73920;51.902;6.374;2023-11-21T01:11:42;20.55;;;8.80;;
83893;SDS011;73920;51.902;6.374;2023-11-21T01:14:08;21.90;;;8.32;;
83893;SDS011;73920;51.902;6.374;2023-11-21T01:16:35;20.02;;;8.73;;
83893;SDS011;73920;51.902;6.374;2023-11-21T01:19:01;23.92;;;9.70;;
83893;SDS011;73920;51.902;6.374;2023-11-21T01:21:27;23.15;;;9.63;;
83893;SDS011;73920;51.902;6.374;2023-11-21T01:23:54;26.48;;;9.30;;
83893;SDS011;73920;51.902;6.374;2023-11-21T01:26:20;17.55;;;8.13;;
83893;SDS011;73920;51.902;6.374;2023-11-21T01:28:47;25.92;;;10.57;;
83893;SDS011;73920;51.902;6.374;2023-11-21T01:31:13;20.23;;;8.20;;
83893;SDS011;73920;51.902;6.374;2023-11-21T01:33:39;27.83;;;9.90;;
83893;SDS011;73920;51.902;6.374;2023-11-21T01:36:06;21.45;;;8.95;;
83893;SDS011;73920;51.902;6.374;2023-11-21T01:38:33;25.15;;;9.80;;
83893;SDS011;73920;51.902;6.374;2023-11-21T01:40:59;21.58;;;8.55;;
83893;SDS011;73920;51.902;6.374;2023-11-21T01:43:25;26.52;;;10.15;;
83893;SDS011;73920;51.902;6.374;2023-11-21T01:45:53;25.27;;;9.38;;
83893;SDS011;73920;51.902;6.374;2023-11-21T01:48:20;22.75;;;8.68;;
83893;SDS011;73920;51.902;6.374;2023-11-21T01:50:46;23.17;;;9.77;;
83893;SDS011;73920;51.902;6.374;2023-11-21T01:53:12;32.95;;;10.57;;
83893;SDS011;73920;51.902;6.374;2023-11-21T01:55:40;25.40;;;8.77;;
83893;SDS011;73920;51.902;6.374;2023-11-21T01:58:07;32.20;;;10.60;;
83893;SDS011;73920;51.902;6.374;2023-11-21T02:00:34;28.73;;;10.13;;
83893;SDS011;73920;51.902;6.374;2023-11-21T02:03:00;28.45;;;10.55;;
83893;SDS011;73920;51.902;6.374;2023-11-21T02:05:26;31.77;;;11.73;;
83893;SDS011;73920;51.902;6.374;2023-11-21T02:07:53;29.35;;;10.13;;
83893;SDS011;73920;51.902;6.374;2023-11-21T02:10:19;26.90;;;10.68;;
83893;SDS011;73920;51.902;6.374;2023-11-21T02:12:45;26.45;;;9.55;;
83893;SDS011;73920;51.902;6.374;2023-11-21T02:15:14;38.53;;;11.90;;
83893;SDS011;73920;51.902;6.374;2023-11-21T02:17:42;37.42;;;12.55;;
83893;SDS011;73920;51.902;6.374;2023-11-21T02:20:09;29.15;;;11.70;;
83893;SDS011;73920;51.902;6.374;2023-11-21T02:22:37;32.17;;;11.80;;
83893;SDS011;73920;51.902;6.374;2023-11-21T02:25:06;34.67;;;11.12;;
83893;SDS011;73920;51.902;6.374;2023-11-21T02:29:59;36.55;;;12.88;;
83893;SDS011;73920;51.902;6.374;2023-11-21T02:32:25;40.67;;;12.73;;
83893;SDS011;73920;51.902;6.374;2023-11-21T02:34:51;41.33;;;13.18;;
83893;SDS011;73920;51.902;6.374;2023-11-21T02:37:18;47.42;;;14.20;;
83893;SDS011;73920;51.902;6.374;2023-11-21T02:39:44;48.53;;;14.98;;
83893;SDS011;73920;51.902;6.374;2023-11-21T02:42:10;48.75;;;15.40;;
83893;SDS011;73920;51.902;6.374;2023-11-21T02:44:36;48.92;;;14.05;;
83893;SDS011;73920;51.902;6.374;2023-11-21T02:47:03;53.30;;;14.70;;
83893;SDS011;73920;51.902;6.374;2023-11-21T02:49:29;50.53;;;14.50;;
83893;SDS011;73920;51.902;6.374;2023-11-21T02:51:56;62.95;;;16.17;;
83893;SDS011;73920;51.902;6.374;2023-11-21T02:54:22;55.42;;;15.85;;
83893;SDS011;73920;51.902;6.374;2023-11-21T02:56:49;74.70;;;16.52;;
83893;SDS011;73920;51.902;6.374;2023-11-21T02:59:15;58.30;;;16.83;;
83893;SDS011;73920;51.902;6.374;2023-11-21T03:01:41;57.72;;;15.65;;
83893;SDS011;73920;51.902;6.374;2023-11-21T03:04:08;55.30;;;16.80;;
83893;SDS011;73920;51.902;6.374;2023-11-21T03:06:34;44.42;;;12.48;;
83893;SDS011;73920;51.902;6.374;2023-11-21T03:09:00;73.95;;;17.48;;
83893;SDS011;73920;51.902;6.374;2023-11-21T03:11:26;55.33;;;15.80;;
83893;SDS011;73920;51.902;6.374;2023-11-21T03:13:52;48.75;;;14.57;;
83893;SDS011;73920;51.902;6.374;2023-11-21T03:16:19;66.50;;;17.55;;
83893;SDS011;73920;51.902;6.374;2023-11-21T03:18:45;42.00;;;12.10;;
83893;SDS011;73920;51.902;6.374;2023-11-21T03:21:11;53.20;;;14.87;;
83893;SDS011;73920;51.902;6.374;2023-11-21T03:23:37;49.47;;;13.90;;
83893;SDS011;73920;51.902;6.374;2023-11-21T03:26:04;59.25;;;17.33;;
83893;SDS011;73920;51.902;6.374;2023-11-21T03:28:30;52.40;;;15.23;;
83893;SDS011;73920;51.902;6.374;2023-11-21T03:30:56;58.47;;;15.43;;
83893;SDS011;73920;51.902;6.374;2023-11-21T03:33:23;63.83;;;16.52;;
83893;SDS011;73920;51.902;6.374;2023-11-21T03:35:49;45.03;;;13.55;;
83893;SDS011;73920;51.902;6.374;2023-11-21T03:38:15;55.53;;;15.27;;
83893;SDS011;73920;51.902;6.374;2023-11-21T03:40:42;57.38;;;14.50;;
83893;SDS011;73920;51.902;6.374;2023-11-21T03:43:08;71.05;;;16.70;;
83893;SDS011;73920;51.902;6.374;2023-11-21T03:45:34;46.85;;;13.27;;
83893;SDS011;73920;51.902;6.374;2023-11-21T03:48:00;57.50;;;16.42;;
83893;SDS011;73920;51.902;6.374;2023-11-21T03:50:28;65.22;;;18.02;;
83893;SDS011;73920;51.902;6.374;2023-11-21T03:52:54;65.43;;;18.73;;
83893;SDS011;73920;51.902;6.374;2023-11-21T03:55:20;61.10;;;15.73;;
83893;SDS011;73920;51.902;6.374;2023-11-21T03:57:47;69.40;;;15.32;;
83893;SDS011;73920;51.902;6.374;2023-11-21T04:00:13;74.43;;;17.35;;
83893;SDS011;73920;51.902;6.374;2023-11-21T04:02:40;67.40;;;15.50;;
83893;SDS011;73920;51.902;6.374;2023-11-21T04:05:06;58.65;;;15.73;;
83893;SDS011;73920;51.902;6.374;2023-11-21T04:07:33;55.85;;;13.98;;
83893;SDS011;73920;51.902;6.374;2023-11-21T04:09:59;60.33;;;15.63;;
83893;SDS011;73920;51.902;6.374;2023-11-21T04:12:25;67.53;;;16.77;;
83893;SDS011;73920;51.902;6.374;2023-11-21T04:14:52;50.25;;;14.05;;
83893;SDS011;73920;51.902;6.374;2023-11-21T04:17:18;62.67;;;15.77;;
83893;SDS011;73920;51.902;6.374;2023-11-21T04:19:45;64.50;;;14.82;;
83893;SDS011;73920;51.902;6.374;2023-11-21T04:22:12;65.97;;;15.98;;
83893;SDS011;73920;51.902;6.374;2023-11-21T04:24:38;71.35;;;16.40;;
83893;SDS011;73920;51.902;6.374;2023-11-21T04:27:04;79.43;;;16.58;;
83893;SDS011;73920;51.902;6.374;2023-11-21T04:29:31;77.55;;;16.45;;
83893;SDS011;73920;51.902;6.374;2023-11-21T04:31:57;61.47;;;14.13;;
83893;SDS011;73920;51.902;6.374;2023-11-21T04:34:23;87.35;;;15.82;;
83893;SDS011;73920;51.902;6.374;2023-11-21T04:36:49;103.03;;;17.42;;
83893;SDS011;73920;51.902;6.374;2023-11-21T04:39:16;71.90;;;14.57;;
83893;SDS011;73920;51.902;6.374;2023-11-21T04:41:42;61.15;;;12.05;;
83893;SDS011;73920;51.902;6.374;2023-11-21T04:44:08;61.08;;;13.77;;
83893;SDS011;73920;51.902;6.374;2023-11-21T04:46:34;46.17;;;11.60;;
83893;SDS011;73920;51.902;6.374;2023-11-21T04:49:00;66.28;;;14.40;;
83893;SDS011;73920;51.902;6.374;2023-11-21T04:51:26;63.85;;;14.45;;
83893;SDS011;73920;51.902;6.374;2023-11-21T04:53:53;46.70;;;11.98;;
83893;SDS011;73920;51.902;6.374;2023-11-21T04:56:19;56.80;;;15.00;;
83893;SDS011;73920;51.902;6.374;2023-11-21T04:58:45;60.15;;;12.45;;
83893;SDS011;73920;51.902;6.374;2023-11-21T05:01:11;50.08;;;11.73;;
83893;SDS011;73920;51.902;6.374;2023-11-21T05:03:37;46.08;;;12.52;;
83893;SDS011;73920;51.902;6.374;2023-11-21T05:06:04;76.22;;;13.38;;
83893;SDS011;73920;51.902;6.374;2023-11-21T05:08:31;89.40;;;15.23;;
83893;SDS011;73920;51.902;6.374;2023-11-21T05:10:57;62.30;;;12.85;;
83893;SDS011;73920;51.902;6.374;2023-11-21T05:13:23;74.15;;;13.80;;
83893;SDS011;73920;51.902;6.374;2023-11-21T05:15:49;47.95;;;12.10;;
83893;SDS011;73920;51.902;6.374;2023-11-21T05:18:16;46.83;;;12.27;;
83893;SDS011;73920;51.902;6.374;2023-11-21T05:20:42;49.50;;;11.77;;
83893;SDS011;73920;51.902;6.374;2023-11-21T05:23:08;75.50;;;15.15;;
83893;SDS011;73920;51.902;6.374;2023-11-21T05:25:34;65.80;;;14.05;;
83893;SDS011;73920;51.902;6.374;2023-11-21T05:28:00;90.43;;;13.80;;
83893;SDS011;73920;51.902;6.374;2023-11-21T05:30:26;75.07;;;14.77;;
83893;SDS011;73920;51.902;6.374;2023-11-21T05:32:53;52.45;;;12.82;;
83893;SDS011;73920;51.902;6.374;2023-11-21T05:35:19;70.68;;;14.95;;
83893;SDS011;73920;51.902;6.374;2023-11-21T05:37:45;62.53;;;12.75;;
83893;SDS011;73920;51.902;6.374;2023-11-21T05:40:12;61.42;;;13.50;;
83893;SDS011;73920;51.902;6.374;2023-11-21T05:42:39;62.10;;;12.07;;
83893;SDS011;73920;51.902;6.374;2023-11-21T05:45:06;49.38;;;12.70;;
83893;SDS011;73920;51.902;6.374;2023-11-21T05:47:34;43.67;;;13.15;;
83893;SDS011;73920;51.902;6.374;2023-11-21T05:50:04;42.00;;;11.32;;
83893;SDS011;73920;51.902;6.374;2023-11-21T05:52:31;45.08;;;11.65;;
83893;SDS011;73920;51.902;6.374;2023-11-21T05:54:57;42.10;;;12.43;;
83893;SDS011;73920;51.902;6.374;2023-11-21T05:57:23;44.45;;;12.20;;
83893;SDS011;73920;51.902;6.374;2023-11-21T05:59:49;48.17;;;12.90;;
83893;SDS011;73920;51.902;6.374;2023-11-21T06:02:16;36.53;;;9.70;;
83893;SDS011;73920;51.902;6.374;2023-11-21T06:04:42;51.47;;;13.75;;
83893;SDS011;73920;51.902;6.374;2023-11-21T06:07:08;45.60;;;11.98;;
83893;SDS011;73920;51.902;6.374;2023-11-21T06:09:34;44.38;;;12.70;;
83893;SDS011;73920;51.902;6.374;2023-11-21T06:12:00;37.53;;;10.57;;
83893;SDS011;73920;51.902;6.374;2023-11-21T06:14:27;34.10;;;11.45;;
83893;SDS011;73920;51.902;6.374;2023-11-21T06:16:53;38.40;;;12.00;;
83893;SDS011;73920;51.902;6.374;2023-11-21T06:19:19;37.63;;;11.98;;
83893;SDS011;73920;51.902;6.374;2023-11-21T06:21:46;31.80;;;11.77;;
83893;SDS011;73920;51.902;6.374;2023-11-21T06:24:12;42.40;;;12.25;;
83893;SDS011;73920;51.902;6.374;2023-11-21T06:26:39;47.08;;;13.05;;
83893;SDS011;73920;51.902;6.374;2023-11-21T06:29:05;52.67;;;14.80;;
83893;SDS011;73920;51.902;6.374;2023-11-21T06:31:31;42.58;;;12.40;;
83893;SDS011;73920;51.902;6.374;2023-11-21T06:33:57;35.55;;;11.30;;
83893;SDS011;73920;51.902;6.374;2023-11-21T06:36:24;46.15;;;14.73;;
83893;SDS011;73920;51.902;6.374;2023-11-21T06:38:50;42.25;;;12.75;;
83893;SDS011;73920;51.902;6.374;2023-11-21T06:41:16;35.00;;;11.55;;
83893;SDS011;73920;51.902;6.374;2023-11-21T06:43:43;44.58;;;11.30;;
83893;SDS011;73920;51.902;6.374;2023-11-21T06:46:10;45.33;;;12.27;;
83893;SDS011;73920;51.902;6.374;2023-11-21T06:48:36;41.45;;;13.70;;
83893;SDS011;73920;51.902;6.374;2023-11-21T06:51:02;36.72;;;12.07;;
83893;SDS011;73920;51.902;6.374;2023-11-21T06:53:29;41.92;;;12.40;;
83893;SDS011;73920;51.902;6.374;2023-11-21T06:55:55;42.03;;;12.23;;
83893;SDS011;73920;51.902;6.374;2023-11-21T06:58:21;40.28;;;12.37;;
83893;SDS011;73920;51.902;6.374;2023-11-21T07:00:48;45.05;;;12.02;;
83893;SDS011;73920;51.902;6.374;2023-11-21T07:03:14;37.83;;;12.20;;
83893;SDS011;73920;51.902;6.374;2023-11-21T07:05:40;28.45;;;10.15;;
83893;SDS011;73920;51.902;6.374;2023-11-21T07:08:06;39.95;;;12.82;;
83893;SDS011;73920;51.902;6.374;2023-11-21T07:10:33;43.47;;;13.05;;
83893;SDS011;73920;51.902;6.374;2023-11-21T07:12:59;39.05;;;12.05;;
83893;SDS011;73920;51.902;6.374;2023-11-21T07:15:25;34.95;;;12.20;;
83893;SDS011;73920;51.902;6.374;2023-11-21T07:17:51;31.87;;;11.40;;
83893;SDS011;73920;51.902;6.374;2023-11-21T07:20:17;32.45;;;11.25;;
83893;SDS011;73920;51.902;6.374;2023-11-21T07:22:44;36.30;;;11.80;;
83893;SDS011;73920;51.902;6.374;2023-11-21T07:25:10;39.55;;;12.02;;
83893;SDS011;73920;51.902;6.374;2023-11-21T07:27:36;35.42;;;12.05;;
83893;SDS011;73920;51.902;6.374;2023-11-21T07:30:03;36.10;;;13.70;;
83893;SDS011;73920;51.902;6.374;2023-11-21T07:32:30;35.88;;;12.75;;
83893;SDS011;73920;51.902;6.374;2023-11-21T07:34:57;37.92;;;12.27;;
83893;SDS011;73920;51.902;6.374;2023-11-21T07:37:23;35.40;;;11.98;;
83893;SDS011;73920;51.902;6.374;2023-11-21T07:39:49;34.55;;;12.10;;
83893;SDS011;73920;51.902;6.374;2023-11-21T07:42:15;32.42;;;12.37;;
83893;SDS011;73920;51.902;6.374;2023-11-21T07:44:41;34.63;;;12.65;;
83893;SDS011;73920;51.902;6.374;2023-11-21T07:47:08;29.73;;;11.00;;
83893;SDS011;73920;51.902;6.374;2023-11-21T07:49:34;39.75;;;12.30;;
83893;SDS011;73920;51.902;6.374;2023-11-21T07:52:00;31.95;;;11.90;;
83893;SDS011;73920;51.902;6.374;2023-11-21T07:54:26;30.62;;;13.27;;
83893;SDS011;73920;51.902;6.374;2023-11-21T07:56:52;27.27;;;10.30;;
83893;SDS011;73920;51.902;6.374;2023-11-21T07:59:19;30.15;;;11.55;;
83893;SDS011;73920;51.902;6.374;2023-11-21T08:01:45;32.28;;;11.40;;
83893;SDS011;73920;51.902;6.374;2023-11-21T08:04:11;34.72;;;12.27;;
83893;SDS011;73920;51.902;6.374;2023-11-21T08:06:37;33.42;;;11.73;;
83893;SDS011;73920;51.902;6.374;2023-11-21T08:09:03;36.08;;;13.40;;
83893;SDS011;73920;51.902;6.374;2023-11-21T08:11:30;33.17;;;12.40;;
83893;SDS011;73920;51.902;6.374;2023-11-21T08:13:56;27.80;;;10.80;;
83893;SDS011;73920;51.902;6.374;2023-11-21T08:16:22;24.85;;;10.65;;
83893;SDS011;73920;51.902;6.374;2023-11-21T08:18:48;27.85;;;9.98;;
83893;SDS011;73920;51.902;6.374;2023-11-21T08:21:14;30.90;;;10.18;;
83893;SDS011;73920;51.902;6.374;2023-11-21T08:23:41;31.05;;;11.60;;
83893;SDS011;73920;51.902;6.374;2023-11-21T08:26:07;26.73;;;9.70;;
83893;SDS011;73920;51.902;6.374;2023-11-21T08:28:36;29.33;;;10.95;;
83893;SDS011;73920;51.902;6.374;2023-11-21T08:31:03;30.12;;;10.27;;
83893;SDS011;73920;51.902;6.374;2023-11-21T08:33:29;24.10;;;10.15;;
83893;SDS011;73920;51.902;6.374;2023-11-21T08:35:56;24.92;;;9.80;;
83893;SDS011;73920;51.902;6.374;2023-11-21T08:38:22;25.85;;;10.10;;
83893;SDS011;73920;51.902;6.374;2023-11-21T08:40:48;22.13;;;9.85;;
83893;SDS011;73920;51.902;6.374;2023-11-21T08:43:14;21.87;;;8.52;;
83893;SDS011;73920;51.902;6.374;2023-11-21T08:45:41;23.52;;;10.38;;
83893;SDS011;73920;51.902;6.374;2023-11-21T08:48:07;24.25;;;10.45;;
83893;SDS011;73920;51.902;6.374;2023-11-21T08:50:33;22.83;;;9.52;;
83893;SDS011;73920;51.902;6.374;2023-11-21T08:52:59;25.40;;;9.63;;
83893;SDS011;73920;51.902;6.374;2023-11-21T08:55:25;24.17;;;9.73;;
83893;SDS011;73920;51.902;6.374;2023-11-21T08:57:51;26.80;;;9.82;;
83893;SDS011;73920;51.902;6.374;2023-11-21T09:00:18;25.60;;;9.82;;
83893;SDS011;73920;51.902;6.374;2023-11-21T09:02:44;24.85;;;9.60;;
83893;SDS011;73920;51.902;6.374;2023-11-21T09:05:11;29.45;;;11.12;;
83893;SDS011;73920;51.902;6.374;2023-11-21T09:07:38;20.17;;;9.40;;
83893;SDS011;73920;51.902;6.374;2023-11-21T09:10:06;24.20;;;9.60;;
83893;SDS011;73920;51.902;6.374;2023-11-21T09:12:33;23.67;;;10.50;;
83893;SDS011;73920;51.902;6.374;2023-11-21T09:17:29;23.52;;;10.52;;
83893;SDS011;73920;51.902;6.374;2023-11-21T09:19:55;27.58;;;11.70;;
83893;SDS011;73920;51.902;6.374;2023-11-21T09:22:21;28.40;;;11.65;;
83893;SDS011;73920;51.902;6.374;2023-11-21T09:24:49;26.90;;;11.40;;
83893;SDS011;73920;51.902;6.374;2023-11-21T09:27:16;24.40;;;11.27;;
83893;SDS011;73920;51.902;6.374;2023-11-21T09:29:42;22.85;;;10.27;;
83893;SDS011;73920;51.902;6.374;2023-11-21T09:32:09;24.40;;;10.13;;
83893;SDS011;73920;51.902;6.374;2023-11-21T09:34:35;22.27;;;10.40;;
83893;SDS011;73920;51.902;6.374;2023-11-21T09:37:03;28.33;;;11.82;;
83893;SDS011;73920;51.902;6.374;2023-11-21T09:39:30;24.12;;;10.10;;
83893;SDS011;73920;51.902;6.374;2023-11-21T09:42:00;30.85;;;12.60;;
83893;SDS011;73920;51.902;6.374;2023-11-21T09:44:35;23.85;;;9.73;;
83893;SDS011;73920;51.902;6.374;2023-11-21T09:47:07;21.92;;;9.05;;
83893;SDS011;73920;51.902;6.374;2023-11-21T09:49:35;26.10;;;10.65;;
83893;SDS011;73920;51.902;6.374;2023-11-21T09:52:04;29.77;;;11.60;;
83893;SDS011;73920;51.902;6.374;2023-11-21T09:54:33;26.35;;;10.40;;
83893;SDS011;73920;51.902;6.374;2023-11-21T09:57:01;24.90;;;10.52;;
83893;SDS011;73920;51.902;6.374;2023-11-21T09:59:29;21.17;;;9.73;;
83893;SDS011;73920;51.902;6.374;2023-11-21T10:01:56;26.30;;;10.43;;
83893;SDS011;73920;51.902;6.374;2023-11-21T10:04:23;27.60;;;11.65;;
83893;SDS011;73920;51.902;6.374;2023-11-21T10:06:50;23.83;;;9.95;;
83893;SDS011;73920;51.902;6.374;2023-11-21T10:09:18;25.30;;;11.60;;
83893;SDS011;73920;51.902;6.374;2023-11-21T10:11:46;22.87;;;10.20;;
83893;SDS011;73920;51.902;6.374;2023-11-21T10:14:14;24.10;;;10.90;;
83893;SDS011;73920;51.902;6.374;2023-11-21T10:16:44;27.80;;;12.13;;
83893;SDS011;73920;51.902;6.374;2023-11-21T10:19:13;18.80;;;8.32;;
83893;SDS011;73920;51.902;6.374;2023-11-21T10:21:40;26.40;;;11.30;;
83893;SDS011;73920;51.902;6.374;2023-11-21T10:24:06;34.22;;;13.27;;
83893;SDS011;73920;51.902;6.374;2023-11-21T10:26:33;22.58;;;9.57;;
83893;SDS011;73920;51.902;6.374;2023-11-21T10:29:01;28.52;;;12.37;;
83893;SDS011;73920;51.902;6.374;2023-11-21T10:31:31;24.80;;;10.70;;
83893;SDS011;73920;51.902;6.374;2023-11-21T10:36:34;25.25;;;11.57;;
83893;SDS011;73920;51.902;6.374;2023-11-21T10:39:01;27.60;;;11.27;;
83893;SDS011;73920;51.902;6.374;2023-11-21T10:41:28;20.20;;;8.88;;
83893;SDS011;73920;51.902;6.374;2023-11-21T10:43:54;28.62;;;12.00;;
83893;SDS011;73920;51.902;6.374;2023-11-21T10:46:21;26.37;;;10.98;;
83893;SDS011;73920;51.902;6.374;2023-11-21T10:48:51;28.17;;;11.85;;
83893;SDS011;73920;51.902;6.374;2023-11-21T10:51:18;22.83;;;9.77;;
83893;SDS011;73920;51.902;6.374;2023-11-21T10:53:46;25.67;;;11.38;;
83893;SDS011;73920;51.902;6.374;2023-11-21T10:56:13;28.00;;;11.73;;
83893;SDS011;73920;51.902;6.374;2023-11-21T10:58:40;26.23;;;9.57;;
83893;SDS011;73920;51.902;6.374;2023-11-21T11:01:06;22.98;;;8.82;;
83893;SDS011;73920;51.902;6.374;2023-11-21T11:03:33;23.77;;;9.82;;
83893;SDS011;73920;51.902;6.374;2023-11-21T11:06:03;29.00;;;11.15;;
83893;SDS011;73920;51.902;6.374;2023-11-21T11:08:31;26.02;;;10.00;;
83893;SDS011;73920;51.902;6.374;2023-11-21T11:10:57;20.30;;;8.98;;
83893;SDS011;73920;51.902;6.374;2023-11-21T11:13:24;28.25;;;11.38;;
83893;SDS011;73920;51.902;6.374;2023-11-21T11:15:50;29.58;;;11.48;;
83893;SDS011;73920;51.902;6.374;2023-11-21T11:18:23;25.12;;;10.40;;
83893;SDS011;73920;51.902;6.374;2023-11-21T11:20:49;23.83;;;9.57;;
83893;SDS011;73920;51.902;6.374;2023-11-21T11:23:26;25.50;;;9.93;;
83893;SDS011;73920;51.902;6.374;2023-11-21T11:26:10;27.05;;;10.95;;
83893;SDS011;73920;51.902;6.374;2023-11-21T11:39:27;24.70;;;10.02;;
83893;SDS011;73920;51.902;6.374;2023-11-21T11:42:01;24.20;;;8.85;;
83893;SDS011;73920;51.902;6.374;2023-11-21T11:47:12;24.95;;;8.77;;
83893;SDS011;73920;51.902;6.374;2023-11-21T11:49:54;25.08;;;8.48;;
83893;SDS011;73920;51.902;6.374;2023-11-21T11:54:57;24.70;;;9.55;;
83893;SDS011;73920;51.902;6.374;2023-11-21T11:57:33;27.33;;;9.32;;
83893;SDS011;73920;51.902;6.374;2023-11-21T12:02:35;26.05;;;9.48;;
83893;SDS011;73920;51.902;6.374;2023-11-21T12:05:02;24.30;;;9.60;;
83893;SDS011;73920;51.902;6.374;2023-11-21T12:07:44;22.67;;;7.78;;
83893;SDS011;73920;51.902;6.374;2023-11-21T12:10:13;23.12;;;7.68;;
83893;SDS011;73920;51.902;6.374;2023-11-21T12:12:42;23.02;;;8.77;;
83893;SDS011;73920;51.902;6.374;2023-11-21T12:15:10;28.25;;;10.95;;
83893;SDS011;73920;51.902;6.374;2023-11-21T12:17:37;18.90;;;7.55;;
83893;SDS011;73920;51.902;6.374;2023-11-21T12:20:04;28.42;;;11.63;;
83893;SDS011;73920;51.902;6.374;2023-11-21T12:24:58;19.52;;;8.43;;
83893;SDS011;73920;51.902;6.374;2023-11-21T12:27:24;20.33;;;7.57;;
83893;SDS011;73920;51.902;6.374;2023-11-21T12:29:50;17.33;;;6.65;;
83893;SDS011;73920;51.902;6.374;2023-11-21T12:32:16;21.48;;;8.10;;
83893;SDS011;73920;51.902;6.374;2023-11-21T12:34:43;14.45;;;6.15;;
83893;SDS011;73920;51.902;6.374;2023-11-21T12:37:09;18.75;;;7.90;;
83893;SDS011;73920;51.902;6.374;2023-11-21T12:39:35;14.82;;;6.60;;
83893;SDS011;73920;51.902;6.374;2023-11-21T12:42:02;18.50;;;8.38;;
83893;SDS011;73920;51.902;6.374;2023-11-21T12:44:29;19.00;;;8.32;;
83893;SDS011;73920;51.902;6.374;2023-11-21T12:46:56;16.80;;;7.32;;
83893;SDS011;73920;51.902;6.374;2023-11-21T12:49:22;15.45;;;7.97;;
83893;SDS011;73920;51.902;6.374;2023-11-21T12:51:49;18.85;;;7.82;;
83893;SDS011;73920;51.902;6.374;2023-11-21T12:54:15;22.27;;;8.63;;
83893;SDS011;73920;51.902;6.374;2023-11-21T12:56:44;18.35;;;8.65;;
83893;SDS011;73920;51.902;6.374;2023-11-21T12:59:12;18.75;;;8.57;;
83893;SDS011;73920;51.902;6.374;2023-11-21T13:01:41;18.20;;;7.18;;
83893;SDS011;73920;51.902;6.374;2023-11-21T13:04:08;19.42;;;8.15;;
83893;SDS011;73920;51.902;6.374;2023-11-21T13:06:34;14.43;;;7.55;;
83893;SDS011;73920;51.902;6.374;2023-11-21T13:09:00;18.92;;;7.75;;
83893;SDS011;73920;51.902;6.374;2023-11-21T13:11:27;23.73;;;9.98;;
83893;SDS011;73920;51.902;6.374;2023-11-21T13:13:53;18.27;;;7.57;;
83893;SDS011;73920;51.902;6.374;2023-11-21T13:16:20;18.05;;;7.87;;
83893;SDS011;73920;51.902;6.374;2023-11-21T13:18:46;18.05;;;8.43;;
83893;SDS011;73920;51.902;6.374;2023-11-21T13:21:12;19.90;;;8.50;;
83893;SDS011;73920;51.902;6.374;2023-11-21T13:23:38;18.73;;;8.45;;
83893;SDS011;73920;51.902;6.374;2023-11-21T13:26:07;22.73;;;8.55;;
83893;SDS011;73920;51.902;6.374;2023-11-21T13:28:35;21.40;;;8.07;;
83893;SDS011;73920;51.902;6.374;2023-11-21T13:31:02;19.90;;;8.65;;
83893;SDS011;73920;51.902;6.374;2023-11-21T13:33:29;15.20;;;6.90;;
83893;SDS011;73920;51.902;6.374;2023-11-21T13:35:55;20.85;;;8.68;;
83893;SDS011;73920;51.902;6.374;2023-11-21T13:38:21;19.80;;;7.93;;
83893;SDS011;73920;51.902;6.374;2023-11-21T13:40:49;18.95;;;7.32;;
83893;SDS011;73920;51.902;6.374;2023-11-21T13:43:17;22.50;;;7.72;;
83893;SDS011;73920;51.902;6.374;2023-11-21T13:45:44;20.90;;;8.27;;
83893;SDS011;73920;51.902;6.374;2023-11-21T13:48:10;18.02;;;8.32;;
83893;SDS011;73920;51.902;6.374;2023-11-21T13:53:03;23.15;;;7.72;;
83893;SDS011;73920;51.902;6.374;2023-11-21T13:55:30;19.98;;;7.30;;
83893;SDS011;73920;51.902;6.374;2023-11-21T13:57:56;16.58;;;6.87;;
83893;SDS011;73920;51.902;6.374;2023-11-21T14:00:22;20.80;;;6.75;;
83893;SDS011;73920;51.902;6.374;2023-11-21T14:02:48;23.52;;;7.37;;
83893;SDS011;73920;51.902;6.374;2023-11-21T14:05:14;18.87;;;7.10;;
83893;SDS011;73920;51.902;6.374;2023-11-21T14:07:41;22.52;;;7.90;;
83893;SDS011;73920;51.902;6.374;2023-11-21T14:10:07;18.45;;;7.03;;
83893;SDS011;73920;51.902;6.374;2023-11-21T14:12:33;19.50;;;8.40;;
83893;SDS011;73920;51.902;6.374;2023-11-21T14:14:59;20.27;;;7.90;;
83893;SDS011;73920;51.902;6.374;2023-11-21T14:17:26;15.80;;;6.70;;
83893;SDS011;73920;51.902;6.374;2023-11-21T14:19:52;15.75;;;5.85;;
83893;SDS011;73920;51.902;6.374;2023-11-21T14:22:18;17.45;;;7.32;;
83893;SDS011;73920;51.902;6.374;2023-11-21T14:24:45;19.62;;;8.00;;
83893;SDS011;73920;51.902;6.374;2023-11-21T14:27:11;17.52;;;6.70;;
83893;SDS011;73920;51.902;6.374;2023-11-21T14:29:37;19.52;;;6.62;;
83893;SDS011;73920;51.902;6.374;2023-11-21T14:32:04;17.60;;;6.97;;
83893;SDS011;73920;51.902;6.374;2023-11-21T14:34:31;16.98;;;6.47;;
83893;SDS011;73920;51.902;6.374;2023-11-21T14:36:57;16.23;;;6.55;;
83893;SDS011;73920;51.902;6.374;2023-11-21T14:39:23;18.40;;;7.18;;
83893;SDS011;73920;51.902;6.374;2023-11-21T14:41:49;17.20;;;6.10;;
83893;SDS011;73920;51.902;6.374;2023-11-21T14:44:16;14.52;;;6.00;;
83893;SDS011;73920;51.902;6.374;2023-11-21T14:46:42;19.45;;;7.55;;
83893;SDS011;73920;51.902;6.374;2023-11-21T14:49:09;19.77;;;6.97;;
83893;SDS011;73920;51.902;6.374;2023-11-21T14:51:35;18.25;;;7.50;;
83893;SDS011;73920;51.902;6.374;2023-11-21T14:54:01;17.52;;;6.82;;